createdAt,value
2023-03-05T00:02:13.585Z,9.77
2023-03-05T00:04:53.456Z,9.78
2023-03-05T00:07:40.588Z,9.76
2023-03-05T00:10:27.435Z,9.69
2023-03-05T00:13:08.121Z,9.65
2023-03-05T00:15:54.442Z,9.58
2023-03-05T00:18:38.548Z,9.52
2023-03-05T00:21:37.389Z,9.54
2023-03-05T00:24:23.540Z,9.62
2023-03-05T00:27:10.433Z,9.53
2023-03-05T00:29:51.552Z,9.55
2023-03-05T00:32:38.469Z,9.45
2023-03-05T00:35:19.494Z,9.35
2023-03-05T00:38:06.475Z,9.37
2023-03-05T00:40:47.494Z,9.37
2023-03-05T00:43:35.432Z,9.35
2023-03-05T00:46:15.532Z,9.30
2023-03-05T00:49:03.359Z,9.24
2023-03-05T00:51:43.517Z,9.14
2023-03-05T00:54:30.348Z,9.04
2023-03-05T00:57:10.571Z,9.04
2023-03-05T00:59:57.411Z,8.85
2023-03-05T01:02:37.439Z,8.60
2023-03-05T01:05:24.428Z,8.66
2023-03-05T01:08:18.359Z,8.63
2023-03-05T01:11:05.360Z,8.65
2023-03-05T01:13:45.522Z,8.73
2023-03-05T01:16:32.413Z,8.67
2023-03-05T01:19:12.451Z,8.63
2023-03-05T01:21:59.363Z,8.46
2023-03-05T01:24:39.463Z,8.49
2023-03-05T01:27:26.333Z,8.44
2023-03-05T01:30:07.854Z,8.40
2023-03-05T01:32:54.323Z,8.37
2023-03-05T01:35:34.508Z,8.12
2023-03-05T01:38:21.372Z,8.24
2023-03-05T01:41:01.415Z,8.23
2023-03-05T01:43:49.352Z,8.12
2023-03-05T01:46:35.563Z,8.15
2023-03-05T01:49:29.386Z,8.19
2023-03-05T01:52:18.106Z,8.13
2023-03-05T01:55:16.366Z,8.22
2023-03-05T01:58:09.431Z,8.21
2023-03-05T02:00:59.354Z,8.26
2023-03-05T02:03:41.510Z,8.25
2023-03-05T02:06:29.361Z,8.26
2023-03-05T02:09:24.329Z,8.13
2023-03-05T02:12:11.367Z,8.19
2023-03-05T02:14:59.256Z,8.20
2023-03-05T02:17:46.328Z,8.16
2023-03-05T02:20:30.402Z,8.13
2023-03-05T02:23:33.404Z,8.13
2023-03-05T02:26:18.389Z,8.01
2023-03-05T02:29:09.367Z,7.95
2023-03-05T02:31:50.432Z,7.91
2023-03-05T02:34:37.358Z,7.67
2023-03-05T02:37:17.441Z,7.68
2023-03-05T02:40:05.325Z,7.64
2023-03-05T02:42:46.824Z,7.62
2023-03-05T02:45:33.344Z,7.54
2023-03-05T02:48:13.422Z,7.48
2023-03-05T02:51:00.317Z,7.50
2023-03-05T02:53:41.688Z,7.41
2023-03-05T02:56:29.309Z,7.45
2023-03-05T02:59:09.389Z,7.52
2023-03-05T03:01:56.323Z,7.53
2023-03-05T03:04:36.377Z,7.52
2023-03-05T03:07:23.326Z,7.39
2023-03-05T03:10:11.417Z,7.35
2023-03-05T03:12:52.308Z,7.25
2023-03-05T03:15:40.417Z,7.29
2023-03-05T03:18:20.308Z,7.30
2023-03-05T03:21:07.451Z,7.32
2023-03-05T03:23:47.314Z,7.33
2023-03-05T03:26:34.392Z,7.00
2023-03-05T03:29:14.317Z,7.01
2023-03-05T03:32:01.387Z,7.07
2023-03-05T03:34:41.313Z,6.92
2023-03-05T03:37:28.378Z,6.96
2023-03-05T03:40:08.361Z,6.85
2023-03-05T03:42:55.369Z,7.06
2023-03-05T03:45:35.288Z,6.84
2023-03-05T03:48:22.362Z,6.94
2023-03-05T03:51:02.296Z,6.94
2023-03-05T03:53:49.395Z,6.96
2023-03-05T03:56:29.287Z,7.02
2023-03-05T03:59:16.385Z,7.12
2023-03-05T04:01:56.271Z,7.15
2023-03-05T04:04:43.352Z,7.19
2023-03-05T04:07:23.288Z,7.27
2023-03-05T04:10:10.362Z,7.29
2023-03-05T04:12:50.296Z,7.33
2023-03-05T04:15:37.374Z,7.25
2023-03-05T04:18:18.326Z,7.20
2023-03-05T04:21:05.610Z,7.19
2023-03-05T04:23:46.270Z,7.13
2023-03-05T04:26:33.367Z,7.16
2023-03-05T04:29:13.252Z,7.16
2023-03-05T04:32:00.415Z,7.16
2023-03-05T04:34:42.246Z,7.19
2023-03-05T04:37:29.378Z,7.20
2023-03-05T04:40:10.301Z,7.07
2023-03-05T04:42:57.349Z,7.12
2023-03-05T04:45:38.244Z,6.94
2023-03-05T04:48:25.380Z,6.96
2023-03-05T04:51:05.266Z,6.93
2023-03-05T04:53:52.353Z,6.94
2023-03-05T04:56:32.233Z,6.78
2023-03-05T04:59:19.360Z,6.86
2023-03-05T05:01:59.258Z,6.85
2023-03-05T05:04:46.548Z,6.93
2023-03-05T05:07:26.236Z,6.92
2023-03-05T05:10:21.219Z,6.82
2023-03-05T05:12:48.187Z,6.91
2023-03-05T05:15:15.031Z,7.05
2023-03-05T05:17:41.823Z,7.05
2023-03-05T05:20:11.548Z,6.95
2023-03-05T05:22:38.555Z,6.90
2023-03-05T05:25:05.790Z,6.60
2023-03-05T05:27:32.642Z,6.44
2023-03-05T05:29:59.531Z,6.30
2023-03-05T05:32:26.612Z,6.41
2023-03-05T05:34:58.191Z,6.43
2023-03-05T05:37:26.055Z,6.54
2023-03-05T05:39:52.809Z,6.56
2023-03-05T05:42:22.297Z,6.60
2023-03-05T05:44:49.828Z,6.49
2023-03-05T05:47:17.435Z,6.37
2023-03-05T05:49:44.349Z,6.47
2023-03-05T05:52:11.530Z,6.48
2023-03-05T05:54:38.961Z,6.59
2023-03-05T05:57:06.668Z,6.65
2023-03-05T05:59:33.733Z,6.76
2023-03-05T06:02:00.585Z,6.59
2023-03-05T06:04:27.463Z,6.72
2023-03-05T06:06:54.203Z,6.69
2023-03-05T06:09:21.239Z,6.71
2023-03-05T06:11:48.013Z,6.62
2023-03-05T06:14:16.065Z,6.64
2023-03-05T06:16:42.990Z,6.56
2023-03-05T06:19:13.957Z,6.54
2023-03-05T06:21:41.242Z,6.48
2023-03-05T06:24:08.168Z,6.01
2023-03-05T06:26:35.136Z,5.80
2023-03-05T06:29:01.977Z,5.84
2023-03-05T06:31:29.673Z,5.68
2023-03-05T06:34:01.346Z,5.72
2023-03-05T06:36:29.073Z,5.75
2023-03-05T06:38:56.876Z,5.75
2023-03-05T06:41:26.894Z,5.82
2023-03-05T06:43:53.935Z,5.73
2023-03-05T06:46:26.702Z,5.83
2023-03-05T06:48:56.250Z,6.06
2023-03-05T06:51:28.910Z,6.16
2023-03-05T06:53:59.263Z,6.27
2023-03-05T06:56:26.185Z,6.46
2023-03-05T06:58:53.330Z,6.53
2023-03-05T07:01:20.808Z,6.64
2023-03-05T07:03:52.434Z,6.73
2023-03-05T07:06:20.115Z,6.73
2023-03-05T07:08:47.393Z,6.75
2023-03-05T07:11:17.046Z,6.86
2023-03-05T07:13:44.579Z,6.82
2023-03-05T07:16:19.145Z,6.81
2023-03-05T07:18:46.635Z,6.77
2023-03-05T07:21:17.864Z,6.91
2023-03-05T07:23:44.699Z,7.02
2023-03-05T07:26:11.880Z,7.10
2023-03-05T07:28:38.891Z,7.13
2023-03-05T07:31:08.549Z,7.18
2023-03-05T07:33:37.201Z,7.25
2023-03-05T07:36:07.315Z,7.25
2023-03-05T07:38:34.264Z,7.16
2023-03-05T07:41:06.253Z,7.19
2023-03-05T07:43:33.004Z,7.27
2023-03-05T07:45:59.950Z,7.32
2023-03-05T07:48:26.982Z,7.41
2023-03-05T07:51:01.753Z,7.52
2023-03-05T07:53:28.604Z,7.66
2023-03-05T07:55:55.345Z,7.76
2023-03-05T07:58:22.128Z,7.73
2023-03-05T08:00:49.195Z,8.19
2023-03-05T08:03:15.975Z,8.40
2023-03-05T08:05:43.071Z,8.46
2023-03-05T08:08:09.887Z,8.62
2023-03-05T08:10:37.869Z,8.85
2023-03-05T08:13:05.804Z,8.86
2023-03-05T08:15:32.635Z,8.83
2023-03-05T08:18:00.232Z,9.01
2023-03-05T08:20:27.089Z,9.14
2023-03-05T08:22:53.903Z,9.26
2023-03-05T08:25:21.077Z,9.40
2023-03-05T08:27:48.911Z,9.50
2023-03-05T08:30:20.311Z,9.54
2023-03-05T08:32:49.158Z,9.65
2023-03-05T08:35:15.886Z,9.83
2023-03-05T08:37:42.896Z,10.00
2023-03-05T08:40:10.752Z,10.14
2023-03-05T08:42:37.527Z,10.35
2023-03-05T08:45:04.529Z,10.66
2023-03-05T08:47:31.319Z,10.93
2023-03-05T08:49:58.483Z,11.07
2023-03-05T08:52:27.314Z,11.21
2023-03-05T08:54:54.198Z,11.33
2023-03-05T08:57:20.998Z,11.48
2023-03-05T08:59:47.940Z,11.52
2023-03-05T09:02:14.758Z,11.73
2023-03-05T09:04:41.548Z,11.86
2023-03-05T09:07:08.874Z,12.05
2023-03-05T09:09:36.510Z,12.07
2023-03-05T09:12:03.475Z,12.31
2023-03-05T09:14:30.551Z,12.50
2023-03-05T09:16:58.111Z,12.65
2023-03-05T09:19:25.108Z,12.81
2023-03-05T09:21:51.963Z,12.78
2023-03-05T09:24:18.767Z,12.94
2023-03-05T09:26:45.542Z,13.06
2023-03-05T09:29:12.536Z,13.17
2023-03-05T09:31:39.632Z,13.17
2023-03-05T09:34:07.350Z,13.23
2023-03-05T09:36:34.590Z,13.31
2023-03-05T09:39:01.388Z,13.28
2023-03-05T09:41:31.209Z,13.29
2023-03-05T09:44:28.514Z,13.40
2023-03-05T09:47:14.774Z,13.57
2023-03-05T09:50:20.381Z,13.74
2023-03-05T09:52:54.861Z,13.84
2023-03-05T09:55:32.105Z,13.90
2023-03-05T09:58:06.024Z,13.95
2023-03-05T10:00:45.839Z,14.12
2023-03-05T10:03:28.279Z,14.20
2023-03-05T10:06:13.507Z,14.33
2023-03-05T10:08:58.631Z,14.45
2023-03-05T10:11:38.260Z,14.55
2023-03-05T10:14:05.529Z,14.39
2023-03-05T10:17:06.351Z,14.51
2023-03-05T10:19:54.080Z,14.52
2023-03-05T10:22:39.743Z,14.76
2023-03-05T10:25:52.483Z,14.79
2023-03-05T10:28:28.111Z,14.77
2023-03-05T10:31:25.815Z,14.86
2023-03-05T10:34:16.397Z,14.92
2023-03-05T10:37:04.675Z,15.14
2023-03-05T10:39:46.309Z,15.18
2023-03-05T10:42:39.251Z,15.15
2023-03-05T10:45:17.169Z,15.13
2023-03-05T10:47:59.572Z,15.16
2023-03-05T10:50:29.118Z,15.15
2023-03-05T10:53:34.420Z,15.23
2023-03-05T10:56:04.024Z,15.35
2023-03-05T10:58:31.323Z,15.46
2023-03-05T11:01:22.096Z,15.57
2023-03-05T11:03:56.853Z,15.64
2023-03-05T11:06:41.983Z,15.75
2023-03-05T11:09:32.567Z,15.78
2023-03-05T11:12:22.106Z,15.78
2023-03-05T11:15:09.819Z,15.70
2023-03-05T11:17:43.247Z,15.77
2023-03-05T11:20:28.942Z,15.71
2023-03-05T11:23:18.924Z,15.73
2023-03-05T11:25:53.310Z,15.75
2023-03-05T11:28:33.027Z,15.79
2023-03-05T11:31:23.563Z,15.87
2023-03-05T11:34:25.655Z,15.84
2023-03-05T11:36:58.419Z,15.91
2023-03-05T11:39:26.185Z,16.04
2023-03-05T11:42:14.441Z,16.09
2023-03-05T11:44:56.012Z,16.15
2023-03-05T11:47:45.271Z,16.22
2023-03-05T11:50:28.413Z,16.30
2023-03-05T11:53:04.213Z,16.30
2023-03-05T11:55:35.027Z,16.34
2023-03-05T11:58:07.824Z,16.42
2023-03-05T12:00:36.528Z,16.44
2023-03-05T12:03:11.573Z,16.38
2023-03-05T12:05:42.627Z,16.43
2023-03-05T12:08:15.454Z,16.43
2023-03-05T12:10:42.246Z,16.37
2023-03-05T12:13:32.074Z,16.44
2023-03-05T12:16:20.557Z,16.43
2023-03-05T12:19:00.116Z,16.44
2023-03-05T12:21:43.266Z,16.52
2023-03-05T12:24:27.960Z,16.60
2023-03-05T12:27:04.153Z,16.66
2023-03-05T12:30:01.530Z,16.69
2023-03-05T12:32:35.312Z,16.82
2023-03-05T12:35:06.277Z,16.82
2023-03-05T12:37:33.008Z,16.84
2023-03-05T12:40:08.071Z,16.85
2023-03-05T12:42:35.437Z,16.95
2023-03-05T12:45:16.984Z,16.97
2023-03-05T12:47:57.025Z,17.02
2023-03-05T12:50:29.706Z,17.01
2023-03-05T12:53:11.472Z,17.00
2023-03-05T12:55:40.907Z,16.99
2023-03-05T12:58:24.362Z,17.09
2023-03-05T13:01:03.047Z,17.13
2023-03-05T13:03:36.252Z,17.16
2023-03-05T13:06:06.638Z,17.20
2023-03-05T13:08:37.876Z,17.21
2023-03-05T13:11:21.162Z,17.20
2023-03-05T13:13:48.561Z,17.25
2023-03-05T13:16:23.240Z,17.31
2023-03-05T13:18:50.996Z,17.31
2023-03-05T13:21:20.413Z,17.30
2023-03-05T13:23:58.611Z,17.38
2023-03-05T13:26:28.892Z,17.44
2023-03-05T13:29:10.762Z,17.44
2023-03-05T13:32:01.093Z,17.49
2023-03-05T13:34:46.681Z,17.47
2023-03-05T13:37:19.317Z,17.57
2023-03-05T13:40:07.078Z,17.62
2023-03-05T13:42:36.188Z,17.51
2023-03-05T13:45:20.907Z,17.49
2023-03-05T13:48:00.433Z,17.50
2023-03-05T13:50:31.217Z,17.59
2023-03-05T13:53:28.242Z,17.57
2023-03-05T13:56:03.731Z,17.61
2023-03-05T13:58:54.534Z,17.40
2023-03-05T14:01:27.104Z,17.36
2023-03-05T14:03:57.312Z,17.46
2023-03-05T14:06:27.825Z,17.40
2023-03-05T14:09:06.711Z,17.44
2023-03-05T14:11:35.463Z,17.34
2023-03-05T14:14:14.431Z,17.27
2023-03-05T14:16:41.471Z,17.17
2023-03-05T14:19:32.802Z,17.24
2023-03-05T14:21:59.558Z,17.20
2023-03-05T14:24:28.643Z,17.09
2023-03-05T14:27:03.314Z,17.21
2023-03-05T14:29:30.176Z,17.22
2023-03-05T14:32:08.709Z,17.10
2023-03-05T14:34:38.165Z,17.05
2023-03-05T14:37:36.908Z,17.14
2023-03-05T14:40:12.714Z,17.12
2023-03-05T14:42:58.926Z,17.11
2023-03-05T14:45:32.100Z,17.04
2023-03-05T14:48:00.726Z,16.95
2023-03-05T14:50:34.533Z,17.04
2023-03-05T14:53:19.903Z,16.82
2023-03-05T14:55:50.407Z,16.85
2023-03-05T14:58:21.707Z,16.82
2023-03-05T15:00:51.070Z,16.85
2023-03-05T15:03:20.712Z,16.73
2023-03-05T15:05:51.083Z,16.62
2023-03-05T15:08:25.238Z,16.63
2023-03-05T15:10:52.634Z,16.64
2023-03-05T15:13:20.618Z,16.69
2023-03-05T15:15:48.641Z,16.67
2023-03-05T15:18:18.573Z,16.68
2023-03-05T15:20:46.315Z,16.66
2023-03-05T15:23:13.110Z,16.69
2023-03-05T15:25:40.110Z,16.57
2023-03-05T15:28:07.675Z,16.65
2023-03-05T15:30:40.676Z,16.69
2023-03-05T15:33:13.722Z,16.78
2023-03-05T15:35:41.388Z,16.78
2023-03-05T15:38:08.201Z,16.83
2023-03-05T15:40:35.050Z,16.83
2023-03-05T15:43:01.805Z,16.85
2023-03-05T15:45:31.256Z,16.83
2023-03-05T15:47:58.368Z,16.80
2023-03-05T15:50:25.176Z,16.90
2023-03-05T15:52:52.598Z,16.87
2023-03-05T15:55:19.818Z,16.91
2023-03-05T15:57:49.188Z,16.93
2023-03-05T16:00:22.598Z,16.90
2023-03-05T16:02:50.621Z,16.90
2023-03-05T16:05:18.540Z,16.91
2023-03-05T16:07:49.185Z,16.93
2023-03-05T16:10:21.761Z,16.92
2023-03-05T16:12:52.196Z,16.89
2023-03-05T16:15:21.292Z,16.84
2023-03-05T16:17:54.282Z,16.85
2023-03-05T16:20:22.145Z,16.88
2023-03-05T16:22:49.775Z,16.82
2023-03-05T16:25:16.911Z,16.88
2023-03-05T16:27:44.000Z,16.90
2023-03-05T16:30:11.507Z,16.88
2023-03-05T16:32:38.705Z,16.83
2023-03-05T16:35:06.197Z,16.88
2023-03-05T16:37:32.922Z,16.88
2023-03-05T16:39:59.875Z,16.85
2023-03-05T16:42:26.762Z,16.81
2023-03-05T16:44:54.249Z,16.83
2023-03-05T16:47:21.122Z,16.87
2023-03-05T16:49:48.015Z,16.91
2023-03-05T16:52:19.015Z,16.84
2023-03-05T16:54:47.041Z,16.87
2023-03-05T16:57:14.087Z,16.84
2023-03-05T16:59:41.275Z,16.76
2023-03-05T17:02:08.328Z,16.76
2023-03-05T17:04:35.894Z,16.66
2023-03-05T17:07:04.178Z,16.59
2023-03-05T17:09:31.184Z,16.48
2023-03-05T17:11:58.020Z,16.40
2023-03-05T17:14:24.887Z,16.23
2023-03-05T17:16:51.754Z,16.15
2023-03-05T17:19:18.830Z,16.09
2023-03-05T17:21:45.675Z,15.96
2023-03-05T17:24:12.673Z,15.89
2023-03-05T17:26:39.504Z,15.77
2023-03-05T17:29:07.262Z,15.64
2023-03-05T17:31:34.599Z,15.62
2023-03-05T17:34:01.490Z,15.57
2023-03-05T17:36:28.281Z,15.47
2023-03-05T17:38:55.108Z,15.43
2023-03-05T17:41:22.977Z,15.36
2023-03-05T17:43:50.363Z,15.27
2023-03-05T17:46:17.610Z,15.23
2023-03-05T17:48:44.665Z,15.22
2023-03-05T17:51:13.019Z,15.12
2023-03-05T17:53:40.574Z,15.09
2023-03-05T17:56:09.440Z,15.07
2023-03-05T17:58:36.486Z,15.04
2023-03-05T18:01:04.341Z,15.01
2023-03-05T18:03:31.252Z,14.97
2023-03-05T18:05:58.090Z,14.95
2023-03-05T18:08:24.902Z,14.91
2023-03-05T18:10:51.675Z,14.98
2023-03-05T18:13:18.485Z,14.97
2023-03-05T18:15:47.762Z,14.93
2023-03-05T18:18:18.473Z,14.91
2023-03-05T18:20:46.103Z,14.88
2023-03-05T18:23:13.095Z,14.83
2023-03-05T18:25:40.441Z,14.77
2023-03-05T18:28:12.453Z,14.75
2023-03-05T18:30:40.667Z,14.72
2023-03-05T18:33:09.290Z,14.66
2023-03-05T18:35:36.830Z,14.60
2023-03-05T18:38:03.635Z,14.55
2023-03-05T18:40:32.705Z,14.47
2023-03-05T18:43:01.138Z,14.46
2023-03-05T18:45:29.327Z,14.49
2023-03-05T18:47:56.782Z,14.48
2023-03-05T18:50:26.554Z,14.33
2023-03-05T18:52:53.968Z,14.35
2023-03-05T18:55:29.414Z,14.28
2023-03-05T18:57:56.920Z,14.36
2023-03-05T19:00:29.621Z,14.38
2023-03-05T19:02:57.108Z,14.29
2023-03-05T19:05:26.304Z,14.28
2023-03-05T19:07:53.995Z,14.29
2023-03-05T19:10:22.675Z,14.26
2023-03-05T19:12:56.887Z,14.27
2023-03-05T19:15:23.850Z,14.29
2023-03-05T19:17:50.688Z,14.28
2023-03-05T19:20:17.736Z,14.28
2023-03-05T19:22:44.589Z,14.30
2023-03-05T19:25:11.468Z,14.30
2023-03-05T19:27:38.852Z,14.28
2023-03-05T19:30:06.832Z,14.29
2023-03-05T19:32:34.193Z,14.26
2023-03-05T19:35:01.019Z,14.26
2023-03-05T19:37:27.964Z,14.25
2023-03-05T19:39:54.815Z,14.24
2023-03-05T19:42:21.615Z,14.23
2023-03-05T19:44:48.547Z,14.23
2023-03-05T19:47:15.366Z,14.21
2023-03-05T19:49:42.176Z,14.18
2023-03-05T19:52:09.008Z,14.17
2023-03-05T19:54:35.780Z,14.15
2023-03-05T19:57:02.635Z,14.12
2023-03-05T19:59:29.425Z,14.06
2023-03-05T20:01:57.524Z,14.02
2023-03-05T20:04:24.716Z,13.95
2023-03-05T20:06:51.848Z,13.91
2023-03-05T20:09:18.750Z,13.86
2023-03-05T20:11:46.075Z,13.84
2023-03-05T20:14:16.089Z,13.81
2023-03-05T20:16:43.444Z,13.79
2023-03-05T20:19:16.207Z,13.73
2023-03-05T20:21:43.519Z,13.74
2023-03-05T20:24:18.647Z,13.73
2023-03-05T20:26:47.293Z,13.71
2023-03-05T20:29:17.735Z,13.67
2023-03-05T20:31:45.647Z,13.68
2023-03-05T20:34:15.174Z,13.67
2023-03-05T20:36:42.153Z,13.58
2023-03-05T20:39:09.531Z,13.62
2023-03-05T20:41:38.153Z,13.59
2023-03-05T20:44:06.242Z,13.51
2023-03-05T20:46:35.912Z,13.52
2023-03-05T20:49:04.179Z,13.52
2023-03-05T20:51:35.158Z,13.50
2023-03-05T20:54:05.387Z,13.53
2023-03-05T20:56:33.862Z,13.50
2023-03-05T20:59:03.944Z,13.47
2023-03-05T21:01:33.099Z,13.46
2023-03-05T21:04:01.098Z,13.40
2023-03-05T21:06:30.004Z,13.39
2023-03-05T21:08:57.249Z,13.41
2023-03-05T21:11:24.596Z,13.36
2023-03-05T21:13:51.418Z,13.31
2023-03-05T21:16:20.904Z,13.22
2023-03-05T21:18:48.527Z,13.16
2023-03-05T21:21:15.301Z,12.89
2023-03-05T21:23:42.145Z,12.94
2023-03-05T21:26:09.074Z,13.03
2023-03-05T21:28:36.273Z,13.03
2023-03-05T21:31:14.579Z,13.02
2023-03-05T21:33:42.128Z,13.02
2023-03-05T21:36:09.662Z,13.02
2023-03-05T21:38:36.381Z,12.99
2023-03-05T21:41:03.801Z,12.91
2023-03-05T21:43:31.457Z,12.78
2023-03-05T21:46:00.176Z,12.82
2023-03-05T21:48:27.032Z,12.80
2023-03-05T21:50:55.163Z,12.76
2023-03-05T21:53:22.359Z,12.72
2023-03-05T21:56:04.158Z,12.66
2023-03-05T21:58:35.040Z,12.49
2023-03-05T22:01:01.916Z,12.55
2023-03-05T22:03:29.481Z,12.38
2023-03-05T22:05:56.965Z,12.48
2023-03-05T22:08:24.863Z,12.52
2023-03-05T22:10:52.466Z,12.59
2023-03-05T22:13:20.168Z,12.56
2023-03-05T22:15:55.850Z,12.54
2023-03-05T22:18:25.821Z,12.33
2023-03-05T22:20:53.686Z,12.43
2023-03-05T22:23:23.149Z,12.43
2023-03-05T22:25:57.647Z,12.43
2023-03-05T22:28:24.694Z,12.40
2023-03-05T22:30:51.638Z,12.43
2023-03-05T22:33:18.762Z,12.40
2023-03-05T22:35:46.778Z,12.22
2023-03-05T22:38:13.956Z,12.25
2023-03-05T22:40:43.449Z,12.26
2023-03-05T22:43:11.650Z,12.36
2023-03-05T22:45:38.429Z,12.36
2023-03-05T22:48:05.712Z,12.33
2023-03-05T22:50:32.476Z,12.32
2023-03-05T22:52:59.342Z,12.19
2023-03-05T22:55:26.201Z,12.15
2023-03-05T22:57:53.519Z,11.98
2023-03-05T23:00:26.814Z,11.89
2023-03-05T23:02:53.980Z,11.96
2023-03-05T23:05:21.449Z,11.95
2023-03-05T23:07:48.920Z,11.95
2023-03-05T23:10:26.434Z,12.05
2023-03-05T23:12:55.258Z,11.99
2023-03-05T23:15:42.242Z,11.98
2023-03-05T23:18:09.138Z,11.98
2023-03-05T23:20:37.180Z,11.89
2023-03-05T23:23:04.423Z,11.91
2023-03-05T23:25:33.155Z,11.93
2023-03-05T23:28:00.307Z,11.94
2023-03-05T23:30:37.333Z,11.85
2023-03-05T23:33:07.483Z,11.89
2023-03-05T23:35:36.623Z,11.81
2023-03-05T23:38:06.254Z,11.77
2023-03-05T23:40:36.454Z,11.83
2023-03-05T23:43:04.047Z,11.72
2023-03-05T23:45:32.670Z,11.67
2023-03-05T23:48:00.107Z,11.65
2023-03-05T23:50:30.008Z,11.64
2023-03-05T23:52:58.070Z,11.56
2023-03-05T23:55:29.191Z,11.54
2023-03-05T23:57:56.191Z,11.57
